Ana Sayfa
METAR-TAF:

METAR-TAF

Havaalanları :

Kuveyt, Kuveyt

Enlem: 29-13N, Boylam: 047-59E, yükseklik: 55 m

Güncel hava durumu gözlemi

Rapor saat 19:00 UTC de 43 dakika önce yapıldı.
Rüzgar kuzeydan 10 kt
Sıcaklık 38°C
Nem 14%
Basınç 1006 hPa
Görüş mesafesi 10 km veya daha fazla
1500 m altında bulut yok ve kümülonimbus yok

METAR: OKBK 311900Z 35010KT CAVOK 38/06 Q1006 NOSIG

Saat: 22:43 (19:43 UTC)

Tahmin

Rapor saat 16:45 UTC de 2 saat ve 58 dakika önce yapıldı.
Ayın 31'si saat 18 UTC'den ayın 01'si saat 24 UTC'ye kadar geçerli Tahmin
Rüzgar kuzey/kuzeybatıdan 10 kt ve 20 kt'a kadar ani rüzgarlar
Görüş mesafesi: 7000 m

TAF: OKBK 311645Z 3118/0124 33010G20KT 7000 NSC

4.000'den fazla havaalanı için hava durumu gözlemleri ve tahminleri (METAR ve TAF raporları).

Kullanılabilir istasyonlar harita üzerinde sarı ve kırmızı noktalarla gösterilir.

İstasyonun adını görmek için fareyi noktanın üzerinde gezdirin.

Sonrasında hava gözlem ve tahminlerini görmek için tıklayın.

Haritayı değiştirmek için: yaklaştırmak için siyah artı işaretli yeşil düğmeye ve uzaklaştırmak için de eksi işaretli düğmeye hızla tıklayın; bitişik haritalar için yeşil okları kullanın.


METAR-TAF: